Time;durP1;ratioP1;P1;durP2;ratioP2;P2;SDS_P1;SDS_P2;PMS_P1;PMS_P2;Temp;Humidity;BMP_temperature;BMP_pressure;BME280_temperature;BME280_humidity;BME280_pressure;Samples;Min_cycle;Max_cycle;Signal;HPM_P1;HPM_P2
2023/08/05 00:00:38;;;;;;;15.70;5.63;;;;;;;15.29;100.00;101741.31;4970658;28;20027;-62
2023/08/05 00:03:04;;;;;;;10.13;5.50;;;;;;;15.34;100.00;101739.34;4988811;28;20022;-62
2023/08/05 00:05:29;;;;;;;10.57;5.47;;;;;;;15.35;100.00;101730.44;4987884;28;20050;-64
2023/08/05 00:07:54;;;;;;;10.68;5.38;;;;;;;15.39;100.00;101733.84;5001046;28;20085;-63
2023/08/05 00:10:20;;;;;;;9.57;6.22;;;;;;;15.45;100.00;101735.38;4987640;28;20030;-62
2023/08/05 00:12:45;;;;;;;14.35;6.38;;;;;;;15.49;100.00;101731.69;4988013;28;20038;-63
2023/08/05 00:15:11;;;;;;;13.38;6.55;;;;;;;15.56;100.00;101738.47;4986173;28;20030;-64
2023/08/05 00:17:37;;;;;;;9.57;6.18;;;;;;;15.64;100.00;101732.84;4988460;28;20070;-62
2023/08/05 00:20:03;;;;;;;11.32;6.20;;;;;;;15.68;100.00;101729.13;4987842;28;20838;-63
2023/08/05 00:22:28;;;;;;;11.48;7.43;;;;;;;15.68;100.00;101715.84;4986716;28;20038;-63
2023/08/05 00:24:54;;;;;;;12.07;6.22;;;;;;;15.73;100.00;101713.88;4987873;28;20034;-61
2023/08/05 00:27:19;;;;;;;15.25;7.60;;;;;;;15.76;100.00;101716.41;4988240;28;20751;-64
2023/08/05 00:29:46;;;;;;;13.35;7.15;;;;;;;15.77;100.00;101714.59;4987349;28;20062;-63
2023/08/05 00:32:11;;;;;;;9.82;6.32;;;;;;;15.84;100.00;101708.13;4988251;28;20487;-64
2023/08/05 00:34:37;;;;;;;11.13;6.20;;;;;;;15.83;100.00;101708.19;4987800;28;20034;-63
2023/08/05 00:37:02;;;;;;;14.25;7.68;;;;;;;15.82;100.00;101715.28;4986645;28;20018;-63
2023/08/05 00:39:28;;;;;;;14.73;7.72;;;;;;;15.88;100.00;101712.38;4986798;28;20033;-63
2023/08/05 00:41:53;;;;;;;9.48;7.15;;;;;;;15.92;100.00;101707.75;4987927;28;20026;-63
2023/08/05 00:44:18;;;;;;;8.77;6.90;;;;;;;15.91;100.00;101703.38;4987894;28;20463;-63
2023/08/05 00:46:44;;;;;;;11.88;7.32;;;;;;;15.91;100.00;101698.06;4988736;28;20081;-62
2023/08/05 00:49:09;;;;;;;9.27;6.72;;;;;;;15.94;100.00;101695.28;4988015;28;20379;-62
2023/08/05 00:51:35;;;;;;;9.48;6.43;;;;;;;16.00;100.00;101694.19;4985891;28;20027;-63
2023/08/05 00:54:00;;;;;;;11.27;6.68;;;;;;;15.99;100.00;101692.47;4988125;28;20029;-63
2023/08/05 00:56:25;;;;;;;12.85;6.90;;;;;;;15.97;100.00;101689.00;4987884;28;20031;-63
2023/08/05 00:58:51;;;;;;;11.23;7.20;;;;;;;16.00;100.00;101692.41;4988255;28;20406;-63
2023/08/05 01:01:16;;;;;;;13.52;7.05;;;;;;;15.99;100.00;101693.34;4986787;28;20076;-62
2023/08/05 01:03:42;;;;;;;13.57;7.43;;;;;;;16.01;100.00;101695.91;4986839;28;20034;-63
2023/08/05 01:06:07;;;;;;;11.18;7.50;;;;;;;16.03;100.00;101694.94;4986975;28;20030;-64
2023/08/05 01:08:34;;;;;;;10.32;6.68;;;;;;;16.03;100.00;101702.91;4987764;28;20061;-63
2023/08/05 01:11:01;;;;;;;12.05;6.50;;;;;;;16.04;100.00;101695.78;4987618;28;20030;-61
2023/08/05 01:13:26;;;;;;;11.93;7.00;;;;;;;16.08;100.00;101694.72;5002376;28;20030;-61
2023/08/05 01:15:51;;;;;;;10.02;6.03;;;;;;;16.11;100.00;101691.94;4988757;28;20033;-63
2023/08/05 01:18:17;;;;;;;9.93;6.18;;;;;;;16.20;100.00;101688.00;4987853;28;20046;-63
2023/08/05 01:20:45;;;;;;;11.82;7.22;;;;;;;16.15;100.00;101685.56;4986322;28;20037;-63
2023/08/05 01:23:17;;;;;;;11.35;6.38;;;;;;;16.22;100.00;101687.94;4985971;28;20019;-60
2023/08/05 01:25:42;;;;;;;12.75;6.57;;;;;;;16.24;100.00;101678.97;4987068;28;20041;-62
2023/08/05 01:28:08;;;;;;;8.38;5.80;;;;;;;16.28;100.00;101685.88;5003100;28;20030;-62
2023/08/05 01:30:34;;;;;;;14.15;5.65;;;;;;;16.29;100.00;101681.41;4987636;28;20022;-61
2023/08/05 01:33:03;;;;;;;10.82;6.88;;;;;;;16.28;100.00;101683.19;4987403;28;20944;-62
2023/08/05 01:35:28;;;;;;;8.43;5.82;;;;;;;16.32;100.00;101681.28;4987689;28;20038;-62
2023/08/05 01:37:54;;;;;;;10.70;6.65;;;;;;;16.34;100.00;101681.22;4986008;28;20034;-63
2023/08/05 01:40:19;;;;;;;9.43;5.57;;;;;;;16.31;100.00;101676.03;4984420;28;20019;-61
2023/08/05 01:42:45;;;;;;;9.52;5.53;;;;;;;16.33;100.00;101679.47;4988354;28;20098;-62
2023/08/05 01:45:10;;;;;;;10.27;6.47;;;;;;;16.32;100.00;101681.28;4990412;28;20033;-62
2023/08/05 01:47:35;;;;;;;6.88;6.07;;;;;;;16.34;100.00;101673.25;4989113;28;20015;-61
2023/08/05 01:50:01;;;;;;;9.57;5.88;;;;;;;16.35;100.00;101673.16;4989661;28;20030;-62
2023/08/05 01:52:26;;;;;;;7.88;5.63;;;;;;;16.34;100.00;101671.41;4989822;28;20042;-65
2023/08/05 01:54:51;;;;;;;10.32;5.93;;;;;;;16.35;100.00;101667.84;4990434;28;20483;-63
2023/08/05 01:57:17;;;;;;;8.27;5.78;;;;;;;16.33;100.00;101667.03;4991328;28;20041;-62
2023/08/05 01:59:42;;;;;;;6.57;5.07;;;;;;;16.36;100.00;101658.94;4989578;28;20033;-63
2023/08/05 02:02:07;;;;;;;10.77;5.80;;;;;;;16.36;100.00;101653.59;4997296;28;20041;-63
2023/08/05 02:04:33;;;;;;;9.85;5.20;;;;;;;16.38;100.00;101650.88;5010452;28;20034;-63
2023/08/05 02:06:58;;;;;;;8.32;5.10;;;;;;;16.36;100.00;101652.72;5008960;28;20545;-62
2023/08/05 02:09:24;;;;;;;8.15;5.18;;;;;;;16.33;100.00;101659.06;4999410;28;20044;-62
2023/08/05 02:11:49;;;;;;;8.32;4.40;;;;;;;16.35;100.00;101664.31;4991236;28;20467;-61
2023/08/05 02:14:14;;;;;;;7.72;5.05;;;;;;;16.36;100.00;101658.06;4990206;28;20108;-62
2023/08/05 02:16:40;;;;;;;9.13;5.20;;;;;;;16.45;100.00;101656.78;4989997;28;20054;-62
2023/08/05 02:19:05;;;;;;;6.53;4.57;;;;;;;16.45;100.00;101662.09;4990956;28;20037;-62
2023/08/05 02:21:30;;;;;;;8.18;5.13;;;;;;;16.44;100.00;101660.38;4988845;28;20041;-64
2023/08/05 02:23:56;;;;;;;10.00;5.57;;;;;;;16.40;100.00;101660.50;5005231;28;20033;-64
2023/08/05 02:26:21;;;;;;;7.18;5.03;;;;;;;16.44;100.00;101653.28;5000294;28;20061;-63
2023/08/05 02:28:47;;;;;;;9.43;5.10;;;;;;;16.45;100.00;101646.13;4977089;28;20030;-63
2023/08/05 02:31:13;;;;;;;13.32;5.45;;;;;;;16.42;100.00;101642.69;4970765;28;20038;-63
2023/08/05 02:33:39;;;;;;;9.55;5.13;;;;;;;16.38;100.00;101626.94;4985853;28;20026;-64
2023/08/05 02:36:04;;;;;;;9.02;5.60;;;;;;;16.32;100.00;101614.81;4970320;28;20121;-63
2023/08/05 02:38:30;;;;;;;8.20;5.25;;;;;;;16.36;100.00;101605.75;4990041;28;20029;-66
2023/08/05 02:40:56;;;;;;;8.13;6.10;;;;;;;16.32;100.00;101597.97;4990308;28;20124;-62
2023/08/05 02:43:22;;;;;;;8.93;5.63;;;;;;;16.24;100.00;101608.94;4989833;28;20043;-63
2023/08/05 02:45:54;;;;;;;7.55;5.25;;;;;;;16.21;100.00;101602.00;4988934;28;20042;-62
2023/08/05 02:48:23;;;;;;;10.30;6.13;;;;;;;16.17;100.00;101603.91;4990786;28;20032;-65
2023/08/05 02:50:49;;;;;;;9.38;5.82;;;;;;;16.16;100.00;101604.84;4989180;28;20072;-63
2023/08/05 02:53:15;;;;;;;10.23;5.75;;;;;;;16.16;100.00;101610.16;4990020;28;20054;-61
2023/08/05 02:55:41;;;;;;;13.07;5.57;;;;;;;16.22;100.00;101603.69;4990084;28;20105;-61
2023/08/05 02:58:06;;;;;;;7.72;5.03;;;;;;;16.19;100.00;101592.38;4989829;28;20022;-62
2023/08/05 03:00:31;;;;;;;6.90;5.15;;;;;;;16.22;100.00;101594.88;5001022;28;20041;-63
2023/08/05 03:02:57;;;;;;;8.60;5.88;;;;;;;16.22;100.00;101593.06;4989047;28;20030;-62
2023/08/05 03:05:22;;;;;;;9.02;5.45;;;;;;;16.21;100.00;101577.19;4988774;28;20018;-61
2023/08/05 03:07:48;;;;;;;7.60;5.13;;;;;;;16.13;100.00;101565.09;4989292;28;20042;-65
2023/08/05 03:10:13;;;;;;;7.88;5.20;;;;;;;16.12;100.00;101558.09;5002009;28;20058;-64
2023/08/05 03:12:38;;;;;;;13.05;5.72;;;;;;;16.05;100.00;101559.28;4989122;28;20022;-63
2023/08/05 03:15:04;;;;;;;8.73;6.30;;;;;;;16.04;100.00;101573.50;4989602;28;20783;-63
2023/08/05 03:17:30;;;;;;;9.02;5.47;;;;;;;15.99;100.00;101571.06;4989558;28;20430;-62
2023/08/05 03:19:55;;;;;;;9.73;5.85;;;;;;;15.95;100.00;101569.44;4989011;28;20045;-63
2023/08/05 03:22:20;;;;;;;10.75;5.85;;;;;;;15.92;100.00;101575.75;4988853;28;20068;-63
2023/08/05 03:24:46;;;;;;;12.45;5.90;;;;;;;15.87;100.00;101569.78;4989300;28;20438;-61
2023/08/05 03:27:11;;;;;;;12.07;5.55;;;;;;;15.86;100.00;101570.72;4988760;28;20114;-64
2023/08/05 03:29:36;;;;;;;8.05;6.20;;;;;;;15.84;100.00;101561.97;4988838;28;20030;-63
2023/08/05 03:32:02;;;;;;;15.20;5.65;;;;;;;15.82;100.00;101569.13;4989363;28;20022;-63
2023/08/05 03:34:27;;;;;;;10.30;6.50;;;;;;;15.78;100.00;101570.19;4988660;28;20026;-64
2023/08/05 03:36:53;;;;;;;11.65;6.78;;;;;;;15.81;100.00;101570.06;5000967;28;20437;-61
2023/08/05 03:39:19;;;;;;;9.40;6.22;;;;;;;15.75;100.00;101563.22;4989788;28;20084;-63
2023/08/05 03:41:45;;;;;;;11.70;6.88;;;;;;;15.76;100.00;101561.44;4987150;28;20029;-63
2023/08/05 03:44:10;;;;;;;12.95;6.43;;;;;;;15.81;100.00;101559.44;4989269;28;20026;-63
2023/08/05 03:46:37;;;;;;;9.82;6.57;;;;;;;15.79;100.00;101558.63;4989003;28;20089;-63
2023/08/05 03:49:03;;;;;;;14.63;7.53;;;;;;;15.75;100.00;101547.28;4988689;28;20022;-64
2023/08/05 03:51:29;;;;;;;13.52;7.30;;;;;;;15.75;100.00;101541.13;4988053;28;20430;-63
2023/08/05 03:53:54;;;;;;;15.55;7.65;;;;;;;15.76;100.00;101530.41;4988725;28;20034;-61
2023/08/05 03:56:22;;;;;;;19.15;7.80;;;;;;;15.75;100.00;101525.16;4988728;28;20022;-62
2023/08/05 03:58:47;;;;;;;13.68;8.27;;;;;;;15.80;100.00;101523.16;4989509;28;20026;-63
2023/08/05 04:01:16;;;;;;;13.23;7.85;;;;;;;15.77;100.00;101512.66;4988447;28;20024;-63
2023/08/05 04:03:42;;;;;;;15.45;7.35;;;;;;;15.77;100.00;101507.34;4988285;28;20112;-63
2023/08/05 04:06:07;;;;;;;12.63;8.43;;;;;;;15.75;100.00;101506.56;4987417;28;20384;-63
2023/08/05 04:08:33;;;;;;;14.80;8.50;;;;;;;15.75;100.00;101509.22;4987889;28;20121;-60
2023/08/05 04:10:58;;;;;;;14.18;8.20;;;;;;;15.77;100.00;101500.25;4987237;28;20073;-60
2023/08/05 04:13:26;;;;;;;15.25;8.15;;;;;;;15.77;100.00;101502.91;4987469;28;20027;-62
2023/08/05 04:15:53;;;;;;;10.68;7.57;;;;;;;15.74;100.00;101497.72;4988402;28;20026;-63
2023/08/05 04:18:19;;;;;;;14.02;8.02;;;;;;;15.75;100.00;101495.94;4987827;28;20117;-62
2023/08/05 04:20:46;;;;;;;12.48;7.88;;;;;;;15.70;100.00;101496.16;4987788;28;20054;-63
2023/08/05 04:23:15;;;;;;;10.10;7.57;;;;;;;15.75;100.00;101501.25;4988074;28;20053;-62
2023/08/05 04:25:43;;;;;;;11.52;8.02;;;;;;;15.75;100.00;101499.44;4988618;28;20497;-63
2023/08/05 04:28:11;;;;;;;14.65;8.15;;;;;;;15.75;100.00;101493.28;4988303;28;20041;-62
2023/08/05 04:30:36;;;;;;;11.68;7.78;;;;;;;15.73;100.00;101484.50;4988094;28;20037;-62
2023/08/05 04:33:02;;;;;;;14.25;7.78;;;;;;;15.76;100.00;101490.56;4988041;28;20026;-63
2023/08/05 04:35:27;;;;;;;14.40;8.07;;;;;;;15.72;100.00;101488.97;4988109;28;20069;-63
2023/08/05 04:37:52;;;;;;;14.80;7.97;;;;;;;15.76;100.00;101481.72;4987894;28;20066;-60
2023/08/05 04:40:18;;;;;;;12.27;7.35;;;;;;;15.75;100.00;101483.50;4988143;28;20037;-58
2023/08/05 04:42:45;;;;;;;12.20;7.95;;;;;;;15.75;100.00;101485.31;4988662;28;20113;-64
2023/08/05 04:45:11;;;;;;;10.50;7.30;;;;;;;15.77;100.00;101488.75;4987943;28;20034;-61
2023/08/05 04:47:36;;;;;;;11.38;6.95;;;;;;;15.77;100.00;101486.97;4986939;28;20019;-62
2023/08/05 04:50:02;;;;;;;14.23;7.60;;;;;;;15.80;100.00;101480.63;4987577;28;20113;-62
2023/08/05 04:52:27;;;;;;;11.95;8.20;;;;;;;15.74;100.00;101475.63;4987101;28;20040;-61
2023/08/05 04:54:53;;;;;;;10.63;7.30;;;;;;;15.78;100.00;101467.41;4987588;28;20073;-61
2023/08/05 04:57:18;;;;;;;16.08;9.00;;;;;;;15.84;100.00;101476.94;4987918;28;20026;-62
2023/08/05 04:59:44;;;;;;;12.25;7.70;;;;;;;15.86;100.00;101469.72;4970107;28;20128;-60
2023/08/05 05:02:10;;;;;;;12.13;7.72;;;;;;;15.85;100.00;101473.34;4987373;28;20452;-62
2023/08/05 05:04:35;;;;;;;14.93;8.57;;;;;;;15.88;100.00;101464.34;4987999;28;20034;-64
2023/08/05 05:07:01;;;;;;;16.98;8.48;;;;;;;15.90;100.00;101459.84;4985504;28;20359;-59
2023/08/05 05:09:27;;;;;;;10.75;7.15;;;;;;;15.90;100.00;101460.69;4987752;28;20060;-62
2023/08/05 05:11:53;;;;;;;13.40;9.25;;;;;;;16.00;100.00;101463.81;4989038;28;20023;-61
2023/08/05 05:14:20;;;;;;;14.30;8.57;;;;;;;16.02;100.00;101453.97;4986653;28;20041;-63
2023/08/05 05:16:45;;;;;;;16.42;9.45;;;;;;;16.04;100.00;101452.09;4987228;28;20437;-62
2023/08/05 05:19:10;;;;;;;16.17;9.60;;;;;;;16.07;100.00;101455.56;4990199;28;20054;-65
2023/08/05 05:21:36;;;;;;;19.85;9.13;;;;;;;16.08;100.00;101447.50;4990115;28;20062;-65
2023/08/05 05:24:01;;;;;;;11.38;8.57;;;;;;;16.09;100.00;101443.91;4991011;28;20085;-64
2023/08/05 05:26:26;;;;;;;16.35;9.73;;;;;;;16.11;100.00;101450.03;4991052;28;20113;-57
2023/08/05 05:28:52;;;;;;;14.10;9.40;;;;;;;16.13;100.00;101442.81;4983400;28;20046;-63
2023/08/05 05:31:17;;;;;;;16.90;10.43;;;;;;;16.14;100.00;101444.53;4991739;28;20022;-63
2023/08/05 05:33:47;;;;;;;18.25;10.20;;;;;;;16.23;100.00;101435.28;4990565;28;20114;-63
2023/08/05 05:36:12;;;;;;;17.75;10.52;;;;;;;16.21;100.00;101431.81;4990001;28;20230;-64
2023/08/05 05:38:38;;;;;;;14.75;10.05;;;;;;;16.25;100.00;101437.84;4989037;28;20514;-64
2023/08/05 05:41:03;;;;;;;14.70;9.75;;;;;;;16.29;100.00;101431.47;4982951;28;20030;-63
2023/08/05 05:43:29;;;;;;;18.80;9.50;;;;;;;16.37;100.00;101426.63;4980666;28;20050;-64
2023/08/05 05:45:54;;;;;;;15.05;10.65;;;;;;;16.42;100.00;101424.59;4981349;28;20029;-63
2023/08/05 05:48:20;;;;;;;14.70;10.10;;;;;;;16.48;100.00;101422.56;4989706;28;20076;-63
2023/08/05 05:50:45;;;;;;;17.13;9.27;;;;;;;16.51;100.00;101423.28;4983724;28;20088;-63
2023/08/05 05:53:13;;;;;;;14.93;9.52;;;;;;;16.61;100.00;101415.69;4970270;28;20433;-64
2023/08/05 05:55:41;;;;;;;13.17;8.87;;;;;;;16.68;100.00;101409.13;4975727;28;20033;-63
2023/08/05 05:58:07;;;;;;;14.60;9.00;;;;;;;16.63;100.00;101410.28;4989984;28;20356;-64
2023/08/05 06:00:32;;;;;;;11.50;7.88;;;;;;;16.68;100.00;101410.94;4989548;28;20110;-63
2023/08/05 06:02:57;;;;;;;15.25;8.77;;;;;;;16.76;100.00;101411.38;4989151;28;20088;-63
2023/08/05 06:05:23;;;;;;;14.35;8.40;;;;;;;16.87;100.00;101412.63;5001890;28;20029;-63
2023/08/05 06:07:48;;;;;;;11.35;8.30;;;;;;;16.90;100.00;101420.47;4999163;28;20510;-64
2023/08/05 06:10:15;;;;;;;10.75;8.57;;;;;;;16.90;100.00;101420.47;4990775;28;20463;-63
2023/08/05 06:12:40;;;;;;;10.27;6.88;;;;;;;16.89;100.00;101422.25;4997344;28;20463;-61
2023/08/05 06:15:09;;;;;;;11.68;7.82;;;;;;;16.90;100.00;101416.03;4993309;28;20058;-62
2023/08/05 06:17:34;;;;;;;8.65;7.05;;;;;;;16.91;100.00;101424.84;4988548;28;20049;-63
2023/08/05 06:20:00;;;;;;;11.27;6.90;;;;;;;16.86;100.00;101422.41;4989196;28;20026;-62
2023/08/05 06:22:25;;;;;;;15.68;6.78;;;;;;;16.85;100.00;101420.69;4987037;28;20026;-60
2023/08/05 06:24:51;;;;;;;11.52;6.03;;;;;;;16.93;100.00;101418.53;4989420;28;20036;-62
2023/08/05 06:27:17;;;;;;;9.55;6.43;;;;;;;16.90;100.00;101401.84;4988939;28;20427;-63
2023/08/05 06:29:42;;;;;;;13.50;6.15;;;;;;;16.88;100.00;101404.56;4986967;28;20045;-60
2023/08/05 06:32:08;;;;;;;10.55;6.82;;;;;;;16.96;100.00;101405.97;4988176;28;20098;-62
2023/08/05 06:34:33;;;;;;;17.60;6.88;;;;;;;17.13;100.00;101400.66;4978115;28;20046;-63
2023/08/05 06:36:58;;;;;;;10.52;6.15;;;;;;;17.43;100.00;101393.78;4979709;28;20041;-61
2023/08/05 06:39:24;;;;;;;9.32;6.18;;;;;;;17.49;100.00;101384.59;4977879;28;20117;-62
2023/08/05 06:41:49;;;;;;;9.18;5.68;;;;;;;17.63;100.00;101389.16;4980486;28;20022;-60
2023/08/05 06:44:14;;;;;;;7.90;5.78;;;;;;;17.80;100.00;101386.44;4978362;28;20105;-62
2023/08/05 06:46:41;;;;;;;12.25;5.30;;;;;;;17.90;100.00;101384.09;4982059;28;20089;-62
2023/08/05 06:49:06;;;;;;;6.97;4.53;;;;;;;18.09;100.00;101376.88;4976332;28;20062;-63
2023/08/05 06:51:32;;;;;;;8.27;4.60;;;;;;;18.15;100.00;101382.72;4980540;28;20547;-63
2023/08/05 06:53:58;;;;;;;6.05;4.30;;;;;;;18.31;100.00;101373.84;5000275;28;20510;-61
2023/08/05 06:56:23;;;;;;;8.77;4.32;;;;;;;18.36;100.00;101366.41;4990790;28;20030;-63
2023/08/05 06:58:48;;;;;;;10.18;4.30;;;;;;;18.27;100.00;101366.97;4987559;28;20022;-60
2023/08/05 07:01:15;;;;;;;6.78;3.75;;;;;;;18.28;100.00;101360.69;4975596;28;20022;-64
2023/08/05 07:03:42;;;;;;;8.50;3.47;;;;;;;18.55;100.00;101368.00;4988462;28;20505;-62
2023/08/05 07:06:08;;;;;;;6.53;4.40;;;;;;;18.58;100.00;101359.81;4987051;28;20429;-62
2023/08/05 07:08:34;;;;;;;7.65;4.47;;;;;;;18.61;100.00;101364.97;4986997;28;20046;-64
2023/08/05 07:10:59;;;;;;;7.43;4.72;;;;;;;18.66;100.00;101360.22;4980764;28;20080;-64
2023/08/05 07:13:25;;;;;;;7.63;4.53;;;;;;;18.63;100.00;101363.06;4983648;28;20018;-65
2023/08/05 07:15:57;;;;;;;8.90;4.50;;;;;;;18.67;100.00;101361.91;4989628;28;20073;-64
2023/08/05 07:18:22;;;;;;;7.65;5.28;;;;;;;18.59;100.00;101350.84;4988305;28;20655;-63
2023/08/05 07:20:49;;;;;;;6.70;4.93;;;;;;;18.66;100.00;101364.72;4987313;28;20419;-62
2023/08/05 07:23:15;;;;;;;6.28;5.53;;;;;;;18.75;100.00;101350.78;4988389;28;20026;-62
2023/08/05 07:25:40;;;;;;;9.45;5.00;;;;;;;18.80;100.00;101347.84;4988063;28;20049;-61
2023/08/05 07:28:06;;;;;;;8.77;5.20;;;;;;;18.67;100.00;101347.72;4988138;28;20022;-63
2023/08/05 07:30:31;;;;;;;8.73;5.40;;;;;;;18.92;100.00;101349.78;4990953;28;20429;-64
2023/08/05 07:32:56;;;;;;;7.30;4.57;;;;;;;19.04;100.00;101345.47;4986679;28;20478;-62
2023/08/05 07:35:22;;;;;;;8.13;5.65;;;;;;;19.20;100.00;101333.84;4987241;28;20022;-62
2023/08/05 07:37:47;;;;;;;9.00;5.10;;;;;;;19.04;100.00;101325.91;5003199;28;20046;-63
2023/08/05 07:40:13;;;;;;;8.75;5.63;;;;;;;19.04;100.00;101331.25;4986687;28;20387;-62
2023/08/05 07:42:39;;;;;;;8.85;5.43;;;;;;;19.26;100.00;101327.28;4985965;28;20364;-58
2023/08/05 07:45:10;;;;;;;8.73;5.03;;;;;;;19.28;100.00;101317.34;4986080;28;20044;-63
2023/08/05 07:47:40;;;;;;;9.13;5.80;;;;;;;19.13;100.00;101313.84;4987124;28;20121;-65
2023/08/05 07:50:07;;;;;;;9.45;5.50;;;;;;;19.08;100.00;101316.78;4977967;28;20049;-62
2023/08/05 07:52:33;;;;;;;11.43;5.82;;;;;;;19.24;100.00;101321.19;4978967;28;20026;-61
2023/08/05 07:54:58;;;;;;;7.88;5.32;;;;;;;19.47;100.00;101308.16;4993584;28;20550;-64
2023/08/05 07:57:24;;;;;;;11.45;5.93;;;;;;;19.50;100.00;101310.66;4967251;28;20650;-62
2023/08/05 07:59:51;;;;;;;7.00;4.72;;;;;;;19.57;100.00;101312.81;4968951;28;20097;-63
2023/08/05 08:02:17;;;;;;;6.90;4.30;;;;;;;19.83;100.00;101302.22;4985182;28;20026;-62
2023/08/05 08:04:43;;;;;;;9.13;5.05;;;;;;;19.76;100.00;101300.91;4987416;28;20505;-63
2023/08/05 08:07:09;;;;;;;10.52;4.95;;;;;;;19.95;100.00;101294.34;4987143;28;20046;-64
2023/08/05 08:09:34;;;;;;;6.35;4.85;;;;;;;19.81;100.00;101290.75;4997611;28;20036;-63
2023/08/05 08:12:00;;;;;;;11.50;5.35;;;;;;;19.92;100.00;101292.72;5007600;28;20669;-63
2023/08/05 08:14:25;;;;;;;8.68;5.38;;;;;;;19.82;100.00;101300.53;5006420;28;20113;-62
2023/08/05 08:16:50;;;;;;;6.07;4.82;;;;;;;19.83;100.00;101283.50;5001589;28;20041;-63
2023/08/05 08:19:18;;;;;;;5.65;4.40;;;;;;;20.03;100.00;101269.78;4982626;28;20435;-62
2023/08/05 08:21:45;;;;;;;10.13;5.70;;;;;;;19.96;100.00;101277.34;4970047;28;20015;-64
2023/08/05 08:24:10;;;;;;;9.23;4.18;;;;;;;20.36;100.00;101276.50;4968764;28;20019;-60
2023/08/05 08:26:35;;;;;;;7.15;4.68;;;;;;;20.36;100.00;101270.25;4988074;28;20543;-63
2023/08/05 08:29:01;;;;;;;5.88;4.28;;;;;;;20.45;100.00;101273.19;4979076;28;20074;-62
2023/08/05 08:31:30;;;;;;;6.18;4.35;;;;;;;20.45;100.00;101275.84;4978973;28;20066;-62
2023/08/05 08:33:56;;;;;;;6.55;4.03;;;;;;;20.70;100.00;101258.06;4980337;28;20081;-62
2023/08/05 08:36:21;;;;;;;7.32;4.60;;;;;;;20.60;100.00;101251.66;4978121;28;20057;-59
2023/08/05 08:38:46;;;;;;;8.50;4.40;;;;;;;20.29;100.00;101261.81;4977201;28;20420;-62
2023/08/05 08:41:12;;;;;;;8.00;4.47;;;;;;;20.61;100.00;101257.84;4979143;28;20038;-61
2023/08/05 08:43:37;;;;;;;6.07;4.20;;;;;;;20.91;100.00;101246.81;4978055;28;20034;-62
2023/08/05 08:46:05;;;;;;;4.93;4.15;;;;;;;21.14;100.00;101241.63;4985189;28;20019;-57
2023/08/05 08:48:32;;;;;;;9.18;4.55;;;;;;;21.00;100.00;101239.06;4991698;28;20019;-63
2023/08/05 08:50:57;;;;;;;5.13;4.20;;;;;;;21.14;100.00;101230.91;4975813;28;20425;-62
2023/08/05 08:53:23;;;;;;;7.63;4.57;;;;;;;21.22;100.00;101227.66;4983800;28;20022;-61
2023/08/05 08:55:48;;;;;;;10.70;5.43;;;;;;;21.42;100.00;101222.66;4981223;28;20446;-62
2023/08/05 08:58:14;;;;;;;9.55;4.88;;;;;;;20.98;100.00;101231.16;4980234;28;20089;-61
2023/08/05 09:00:39;;;;;;;7.63;5.63;;;;;;;21.04;100.00;101229.88;4985065;28;20030;-62
2023/08/05 09:03:06;;;;;;;6.68;4.78;;;;;;;21.33;100.00;101224.19;4980247;28;20034;-61
2023/08/05 09:05:42;;;;;;;6.30;4.57;;;;;;;21.73;100.00;101220.34;4980070;28;20700;-61
2023/08/05 09:08:07;;;;;;;9.23;5.07;;;;;;;21.45;100.00;101217.06;5006156;28;20052;-62
2023/08/05 09:10:33;;;;;;;6.95;5.55;;;;;;;21.60;100.00;101212.38;4988328;28;20031;-61
2023/08/05 09:12:58;;;;;;;8.55;5.45;;;;;;;21.43;100.00;101203.78;4981883;28;20019;-61
2023/08/05 09:15:35;;;;;;;7.30;4.65;;;;;;;21.38;100.00;101200.59;4977622;28;20518;-61
2023/08/05 09:18:03;;;;;;;7.90;5.38;;;;;;;21.48;100.00;101194.53;4991399;28;20030;-61
2023/08/05 09:20:30;;;;;;;5.57;4.72;;;;;;;21.57;100.00;101200.06;4977299;28;20117;-62
2023/08/05 09:22:57;;;;;;;9.82;5.32;;;;;;;21.16;100.00;101202.19;4981849;28;20026;-62
2023/08/05 09:25:23;;;;;;;7.47;4.85;;;;;;;21.26;100.00;101190.78;4984420;28;20557;-59
2023/08/05 09:27:50;;;;;;;7.05;3.88;;;;;;;21.31;100.00;101185.94;4983667;28;20033;-61
2023/08/05 09:30:17;;;;;;;9.68;4.00;;;;;;;21.08;100.00;101183.97;4979804;28;20027;-62
2023/08/05 09:32:45;;;;;;;6.90;4.13;;;;;;;20.84;100.00;101178.56;4983279;28;20105;-62
2023/08/05 09:35:12;;;;;;;6.25;4.32;;;;;;;20.79;100.00;101175.34;4987130;28;20027;-63
2023/08/05 09:37:40;;;;;;;7.47;3.45;;;;;;;20.78;100.00;101177.19;4981038;28;20046;-62
2023/08/05 09:40:22;;;;;;;3.78;3.25;;;;;;;20.71;100.00;101187.47;4984162;28;20479;-62
2023/08/05 09:42:49;;;;;;;6.22;3.60;;;;;;;20.66;100.00;101183.44;4982629;28;20025;-61
2023/08/05 09:45:18;;;;;;;6.55;3.58;;;;;;;20.53;100.00;101173.59;4983099;28;20085;-61
2023/08/05 09:47:46;;;;;;;7.25;3.20;;;;;;;20.14;100.00;101181.63;4988854;28;20058;-62
2023/08/05 09:50:13;;;;;;;7.80;3.65;;;;;;;20.53;100.00;101167.41;4988219;28;20149;-63
2023/08/05 09:52:43;;;;;;;6.75;3.90;;;;;;;20.53;100.00;101162.88;4988695;28;20121;-64
2023/08/05 09:55:14;;;;;;;6.13;4.03;;;;;;;20.93;100.00;101167.22;4988692;28;20034;-63
2023/08/05 09:57:41;;;;;;;6.95;3.78;;;;;;;21.37;100.00;101164.03;4985740;28;20522;-61
2023/08/05 10:00:08;;;;;;;8.65;4.18;;;;;;;21.61;100.00;101160.47;4980834;28;20108;-61
2023/08/05 10:02:43;;;;;;;5.07;3.58;;;;;;;21.51;100.00;101156.78;4985241;28;20021;-63
2023/08/05 10:05:09;;;;;;;6.18;4.07;;;;;;;21.53;100.00;101150.34;4986404;28;20026;-59
2023/08/05 10:07:37;;;;;;;8.80;4.22;;;;;;;21.35;100.00;101152.59;4988285;28;20077;-64
2023/08/05 10:10:06;;;;;;;10.30;3.88;;;;;;;21.15;100.00;101146.88;4988783;28;20154;-64
2023/08/05 10:12:39;;;;;;;7.80;4.35;;;;;;;21.03;100.00;101137.94;4987646;28;20117;-63
2023/08/05 10:15:05;;;;;;;8.38;5.07;;;;;;;20.90;100.00;101138.00;4987060;28;20430;-63
2023/08/05 10:17:31;;;;;;;7.05;3.72;;;;;;;20.91;100.00;101141.50;4986820;28;20100;-61
2023/08/05 10:20:00;;;;;;;6.40;3.80;;;;;;;20.76;100.00;101136.28;4981386;28;20018;-65
2023/08/05 10:22:26;;;;;;;8.48;3.50;;;;;;;20.77;100.00;101137.97;4981943;28;20084;-62
2023/08/05 10:24:56;;;;;;;8.95;3.30;;;;;;;20.59;100.00;101140.19;4985814;28;20046;-64
2023/08/05 10:27:39;;;;;;;4.30;2.60;;;;;;;20.45;100.00;101142.03;4987298;28;20029;-65
2023/08/05 10:30:13;;;;;;;5.07;2.67;;;;;;;20.49;100.00;101134.63;4985599;28;20029;-64
2023/08/05 10:32:54;;;;;;;7.32;2.20;;;;;;;20.40;100.00;101128.13;4988930;28;20030;-60
2023/08/05 10:35:30;;;;;;;6.43;2.28;;;;;;;20.32;100.00;101125.16;4979151;28;20525;-62
2023/08/05 10:38:23;;;;;;;3.47;2.08;;;;;;;20.19;100.00;101131.34;4988430;28;20531;-62
2023/08/05 10:40:52;;;;;;;3.25;2.53;;;;;;;20.01;100.00;101129.94;4987199;28;20509;-61
2023/08/05 10:43:30;;;;;;;5.15;2.20;;;;;;;20.00;100.00;101130.91;4989646;28;20506;-64
2023/08/05 10:46:17;;;;;;;6.00;2.28;;;;;;;20.09;100.00;101132.97;4978464;28;20034;-61
2023/08/05 10:48:48;;;;;;;4.97;2.20;;;;;;;20.44;100.00;101115.38;4979742;28;20034;-60
2023/08/05 10:51:19;;;;;;;6.00;2.50;;;;;;;20.63;100.00;101111.38;4978896;28;20491;-62
2023/08/05 10:53:58;;;;;;;4.80;2.15;;;;;;;20.76;100.00;101105.97;4978248;28;20030;-61
2023/08/05 10:56:33;;;;;;;4.93;2.20;;;;;;;20.69;100.00;101114.47;4980585;28;20018;-62
2023/08/05 10:59:01;;;;;;;6.47;2.13;;;;;;;20.23;100.00;101110.59;4981585;28;20110;-63
2023/08/05 11:01:55;;;;;;;6.78;2.58;;;;;;;19.93;100.00;101109.91;4973208;28;20041;-63
2023/08/05 11:04:28;;;;;;;6.35;2.55;;;;;;;19.73;100.00;101115.78;4979588;28;20091;-62
2023/08/05 11:06:54;;;;;;;6.32;2.50;;;;;;;19.61;100.00;101107.66;4984096;28;20049;-64
2023/08/05 11:09:20;;;;;;;4.05;2.65;;;;;;;19.65;100.00;101113.63;4975913;28;20104;-61
2023/08/05 11:11:47;;;;;;;5.40;2.97;;;;;;;19.62;100.00;101109.38;4989808;28;20479;-62